createdAt,value
2023-04-16T16:16:46.959Z,993.13
2023-04-16T16:17:48.178Z,993.13
2023-04-16T16:18:49.290Z,993.19
2023-04-16T16:19:50.233Z,993.14
2023-04-16T16:20:51.152Z,993.14
2023-04-16T16:21:52.092Z,993.18
2023-04-16T16:22:53.106Z,993.2
2023-04-16T16:23:54.164Z,993.2
2023-04-16T16:24:55.085Z,993.21
2023-04-16T16:25:56.026Z,993.24
2023-04-16T16:26:56.948Z,993.27
2023-04-16T16:27:57.898Z,993.22
2023-04-16T16:28:58.813Z,993.24
2023-04-16T16:29:59.767Z,993.23
2023-04-16T16:31:00.765Z,993.24
2023-04-16T16:32:01.942Z,993.26
2023-04-16T16:33:03.350Z,993.26
2023-04-16T16:34:04.479Z,993.28
2023-04-16T16:35:05.390Z,993.25
2023-04-16T16:36:06.345Z,993.22
2023-04-16T16:37:07.216Z,993.27
2023-04-16T16:38:08.081Z,993.25
2023-04-16T16:39:09.697Z,993.25
2023-04-16T16:40:10.889Z,993.25
2023-04-16T16:41:11.775Z,993.25
2023-04-16T16:42:12.770Z,993.28
2023-04-16T16:43:14.018Z,993.29
2023-04-16T16:44:15.011Z,993.28
2023-04-16T16:45:15.916Z,993.29
2023-04-16T16:46:17.030Z,993.25
2023-04-16T16:47:17.962Z,993.26
2023-04-16T16:48:18.860Z,993.26
2023-04-16T16:49:19.795Z,993.32
2023-04-16T16:50:20.722Z,993.31
2023-04-16T16:51:21.634Z,993.26
2023-04-16T16:52:22.606Z,993.29
2023-04-16T16:53:23.502Z,993.27
2023-04-16T16:54:24.460Z,993.27
2023-04-16T16:55:25.360Z,993.3
2023-04-16T16:56:26.322Z,993.3
2023-04-16T16:57:27.224Z,993.3
2023-04-16T16:58:28.125Z,993.28
2023-04-16T16:59:29.675Z,993.26
2023-04-16T17:00:30.652Z,993.31
2023-04-16T17:01:32.170Z,993.29
2023-04-16T17:02:33.614Z,993.31
2023-04-16T17:03:34.995Z,993.32
2023-04-16T17:04:36.570Z,993.23
2023-04-16T17:05:37.532Z,993.29
2023-04-16T17:06:38.595Z,993.29
2023-04-16T17:07:39.667Z,993.28
2023-04-16T17:08:40.586Z,993.3
2023-04-16T17:09:41.724Z,993.31
2023-04-16T17:10:42.613Z,993.31
2023-04-16T17:11:43.516Z,993.31
2023-04-16T17:12:44.364Z,993.33
2023-04-16T17:13:45.240Z,993.31
2023-04-16T17:14:46.203Z,993.31
2023-04-16T17:15:47.194Z,993.28
2023-04-16T17:16:48.368Z,993.29
2023-04-16T17:17:49.498Z,993.35
2023-04-16T17:18:50.521Z,993.32
2023-04-16T17:19:51.553Z,993.36
2023-04-16T17:20:52.497Z,993.33
2023-04-16T17:21:53.440Z,993.35
2023-04-16T17:22:54.333Z,993.31
2023-04-16T17:23:55.288Z,993.3
2023-04-16T17:24:56.163Z,993.33
2023-04-16T17:25:57.044Z,993.33
2023-04-16T17:26:57.936Z,993.35
2023-04-16T17:27:58.814Z,993.35
2023-04-16T17:28:59.695Z,993.31
2023-04-16T17:30:00.625Z,993.38
2023-04-16T17:31:01.691Z,993.32
2023-04-16T17:32:03.171Z,993.29
2023-04-16T17:33:04.446Z,993.33
2023-04-16T17:34:05.527Z,993.34
2023-04-16T17:35:06.705Z,993.35
2023-04-16T17:36:07.674Z,993.36
2023-04-16T17:37:08.616Z,993.39
2023-04-16T17:38:09.540Z,993.39
2023-04-16T17:39:10.449Z,993.4
2023-04-16T17:40:11.378Z,993.42
2023-04-16T17:41:12.290Z,993.44
2023-04-16T17:42:13.213Z,993.47
2023-04-16T17:43:14.077Z,993.42
2023-04-16T17:44:15.559Z,993.45
2023-04-16T17:45:16.711Z,993.49
2023-04-16T17:46:17.854Z,993.45
2023-04-16T17:47:18.963Z,993.48
2023-04-16T17:48:19.884Z,993.48
2023-04-16T17:49:20.789Z,993.47
2023-04-16T17:50:21.724Z,993.49
2023-04-16T17:51:22.614Z,993.53
2023-04-16T17:52:23.547Z,993.48
2023-04-16T17:53:24.468Z,993.56
2023-04-16T17:54:25.345Z,993.56
2023-04-16T17:55:26.221Z,993.55
2023-04-16T17:56:27.319Z,993.61
2023-04-16T17:57:28.211Z,993.57
2023-04-16T17:58:29.111Z,993.63
2023-04-16T17:59:30.004Z,993.62
2023-04-16T18:00:30.883Z,993.6
2023-04-16T18:01:32.149Z,993.59
2023-04-16T18:02:33.757Z,993.63
2023-04-16T18:03:35.430Z,993.61
2023-04-16T18:04:37.239Z,993.6
2023-04-16T18:05:38.457Z,993.62
2023-04-16T18:06:39.595Z,993.62
2023-04-16T18:07:40.688Z,993.62
2023-04-16T18:08:41.621Z,993.58
2023-04-16T18:09:42.573Z,993.58
2023-04-16T18:10:43.474Z,993.61
2023-04-16T18:11:44.396Z,993.62
2023-04-16T18:12:45.318Z,993.63
2023-04-16T18:13:46.335Z,993.63
2023-04-16T18:14:47.317Z,993.65
2023-04-16T18:15:48.516Z,993.7
2023-04-16T18:16:49.459Z,993.7
2023-04-16T18:17:50.609Z,993.71
2023-04-16T18:18:51.542Z,993.71
